Terminal Aerodrome Forecast
Issued by NWS Chicago, IL

Home | Current Version | Previous Version | Graphics & Text | Print | Product List | Glossary On
Versions: 1 2 3 4 5 6 7 8 9 10 11 12 13 14 15 16 17 18 19 20 21 22 23 24 25 26 27 28 29 30 31 32
656
FTUS43 KLOT 010526
TAFRFD
TAF
KRFD 010526Z 0106/0206 VRB06KT P6SM SCT020 OVC040
     FM010800 27007KT 5SM BR OVC015
     FM011200 30013KT 5SM -SHRA BR BKN006
     FM011600 30017G25KT P6SM VCSH OVC015
     FM012000 31018G24KT P6SM -RASN OVC020
     FM012200 30016G25KT 5SM -SHSN OVC025
     FM020000 30011KT P6SM OVC035=

USA.gov is the U.S. government's official web portal to all federal, state and local government web resources and services.